sensor_id;sensor_type;location;lat;lon;timestamp;P1;durP1;ratioP1;P2;durP2;ratioP2
45114;SDS011;30877;43.706;10.780;2023-08-07T00:02:19;11.27;;;3.45;;
45114;SDS011;30877;43.706;10.780;2023-08-07T00:04:47;18.08;;;3.60;;
45114;SDS011;30877;43.706;10.780;2023-08-07T00:07:15;11.85;;;3.33;;
45114;SDS011;30877;43.706;10.780;2023-08-07T00:09:45;15.30;;;3.35;;
45114;SDS011;30877;43.706;10.780;2023-08-07T00:12:12;13.35;;;3.70;;
45114;SDS011;30877;43.706;10.780;2023-08-07T00:14:42;16.50;;;3.85;;
45114;SDS011;30877;43.706;10.780;2023-08-07T00:17:10;19.80;;;3.97;;
45114;SDS011;30877;43.706;10.780;2023-08-07T00:19:38;18.60;;;4.07;;
45114;SDS011;30877;43.706;10.780;2023-08-07T00:22:06;12.90;;;3.42;;
45114;SDS011;30877;43.706;10.780;2023-08-07T00:24:34;16.25;;;3.75;;
45114;SDS011;30877;43.706;10.780;2023-08-07T00:27:02;12.73;;;3.17;;
45114;SDS011;30877;43.706;10.780;2023-08-07T00:29:30;15.88;;;3.95;;
45114;SDS011;30877;43.706;10.780;2023-08-07T00:32:01;12.43;;;3.38;;
45114;SDS011;30877;43.706;10.780;2023-08-07T00:34:29;16.90;;;3.53;;
45114;SDS011;30877;43.706;10.780;2023-08-07T00:36:57;13.25;;;3.40;;
45114;SDS011;30877;43.706;10.780;2023-08-07T00:39:27;13.23;;;3.17;;
45114;SDS011;30877;43.706;10.780;2023-08-07T00:41:55;15.15;;;3.63;;
45114;SDS011;30877;43.706;10.780;2023-08-07T00:44:23;18.38;;;4.57;;
45114;SDS011;30877;43.706;10.780;2023-08-07T00:46:51;15.15;;;3.72;;
45114;SDS011;30877;43.706;10.780;2023-08-07T00:49:21;13.75;;;3.25;;
45114;SDS011;30877;43.706;10.780;2023-08-07T00:51:49;9.55;;;2.60;;
45114;SDS011;30877;43.706;10.780;2023-08-07T00:54:18;12.60;;;3.47;;
45114;SDS011;30877;43.706;10.780;2023-08-07T00:56:47;11.98;;;2.90;;
45114;SDS011;30877;43.706;10.780;2023-08-07T00:59:16;13.57;;;3.65;;
45114;SDS011;30877;43.706;10.780;2023-08-07T01:01:45;12.80;;;3.20;;
45114;SDS011;30877;43.706;10.780;2023-08-07T01:04:13;12.32;;;2.95;;
45114;SDS011;30877;43.706;10.780;2023-08-07T01:06:43;14.43;;;3.85;;
45114;SDS011;30877;43.706;10.780;2023-08-07T01:09:10;14.23;;;3.65;;
45114;SDS011;30877;43.706;10.780;2023-08-07T01:11:40;13.57;;;3.10;;
45114;SDS011;30877;43.706;10.780;2023-08-07T01:14:16;14.73;;;3.47;;
45114;SDS011;30877;43.706;10.780;2023-08-07T01:16:51;16.25;;;3.55;;
45114;SDS011;30877;43.706;10.780;2023-08-07T01:19:25;13.95;;;3.17;;
45114;SDS011;30877;43.706;10.780;2023-08-07T01:22:06;13.02;;;3.42;;
45114;SDS011;30877;43.706;10.780;2023-08-07T01:24:35;13.82;;;3.08;;
45114;SDS011;30877;43.706;10.780;2023-08-07T01:27:07;16.85;;;3.60;;
45114;SDS011;30877;43.706;10.780;2023-08-07T01:29:43;16.27;;;3.85;;
45114;SDS011;30877;43.706;10.780;2023-08-07T01:32:17;14.70;;;3.63;;
45114;SDS011;30877;43.706;10.780;2023-08-07T01:34:49;16.17;;;3.47;;
45114;SDS011;30877;43.706;10.780;2023-08-07T01:37:21;10.95;;;2.80;;
45114;SDS011;30877;43.706;10.780;2023-08-07T01:39:51;11.77;;;3.47;;
45114;SDS011;30877;43.706;10.780;2023-08-07T01:42:20;10.73;;;2.88;;
45114;SDS011;30877;43.706;10.780;2023-08-07T01:44:48;11.38;;;3.75;;
45114;SDS011;30877;43.706;10.780;2023-08-07T01:47:16;14.18;;;3.95;;
45114;SDS011;30877;43.706;10.780;2023-08-07T01:49:45;10.75;;;2.70;;
45114;SDS011;30877;43.706;10.780;2023-08-07T01:52:13;12.02;;;3.05;;
45114;SDS011;30877;43.706;10.780;2023-08-07T01:54:42;10.85;;;2.90;;
45114;SDS011;30877;43.706;10.780;2023-08-07T01:57:11;13.80;;;3.58;;
45114;SDS011;30877;43.706;10.780;2023-08-07T01:59:40;13.32;;;4.18;;
45114;SDS011;30877;43.706;10.780;2023-08-07T02:02:08;14.18;;;4.55;;
45114;SDS011;30877;43.706;10.780;2023-08-07T02:04:36;14.95;;;3.20;;
45114;SDS011;30877;43.706;10.780;2023-08-07T02:07:04;13.07;;;3.50;;
45114;SDS011;30877;43.706;10.780;2023-08-07T02:09:33;15.52;;;3.72;;
45114;SDS011;30877;43.706;10.780;2023-08-07T02:12:05;15.85;;;4.10;;
45114;SDS011;30877;43.706;10.780;2023-08-07T02:14:35;17.15;;;3.72;;
45114;SDS011;30877;43.706;10.780;2023-08-07T02:17:05;13.77;;;3.53;;
45114;SDS011;30877;43.706;10.780;2023-08-07T02:19:34;9.77;;;3.35;;
45114;SDS011;30877;43.706;10.780;2023-08-07T02:22:03;11.52;;;3.00;;
45114;SDS011;30877;43.706;10.780;2023-08-07T02:24:33;14.63;;;3.25;;
45114;SDS011;30877;43.706;10.780;2023-08-07T02:27:08;16.58;;;3.30;;
45114;SDS011;30877;43.706;10.780;2023-08-07T02:29:47;17.00;;;3.88;;
45114;SDS011;30877;43.706;10.780;2023-08-07T02:32:19;13.80;;;3.20;;
45114;SDS011;30877;43.706;10.780;2023-08-07T02:34:48;12.32;;;2.97;;
45114;SDS011;30877;43.706;10.780;2023-08-07T02:37:17;15.85;;;3.50;;
45114;SDS011;30877;43.706;10.780;2023-08-07T02:39:46;11.30;;;3.50;;
45114;SDS011;30877;43.706;10.780;2023-08-07T02:42:17;12.38;;;3.65;;
45114;SDS011;30877;43.706;10.780;2023-08-07T02:44:46;13.10;;;2.88;;
45114;SDS011;30877;43.706;10.780;2023-08-07T02:47:15;11.10;;;2.55;;
45114;SDS011;30877;43.706;10.780;2023-08-07T02:49:45;13.75;;;3.15;;
45114;SDS011;30877;43.706;10.780;2023-08-07T02:52:13;9.98;;;2.65;;
45114;SDS011;30877;43.706;10.780;2023-08-07T02:54:42;10.38;;;2.88;;
45114;SDS011;30877;43.706;10.780;2023-08-07T02:57:11;9.32;;;2.85;;
45114;SDS011;30877;43.706;10.780;2023-08-07T02:59:42;12.23;;;3.42;;
45114;SDS011;30877;43.706;10.780;2023-08-07T03:02:11;10.80;;;2.83;;
45114;SDS011;30877;43.706;10.780;2023-08-07T03:04:40;10.95;;;2.75;;
45114;SDS011;30877;43.706;10.780;2023-08-07T03:07:09;15.38;;;9.25;;
45114;SDS011;30877;43.706;10.780;2023-08-07T03:09:38;22.10;;;10.75;;
45114;SDS011;30877;43.706;10.780;2023-08-07T03:12:07;14.20;;;7.45;;
45114;SDS011;30877;43.706;10.780;2023-08-07T03:14:36;45.97;;;36.38;;
45114;SDS011;30877;43.706;10.780;2023-08-07T03:17:07;25.85;;;17.75;;
45114;SDS011;30877;43.706;10.780;2023-08-07T03:19:36;13.57;;;6.53;;
45114;SDS011;30877;43.706;10.780;2023-08-07T03:22:05;15.07;;;5.70;;
45114;SDS011;30877;43.706;10.780;2023-08-07T03:24:34;14.45;;;3.80;;
45114;SDS011;30877;43.706;10.780;2023-08-07T03:27:03;14.10;;;3.50;;
45114;SDS011;30877;43.706;10.780;2023-08-07T03:29:32;19.90;;;3.75;;
45114;SDS011;30877;43.706;10.780;2023-08-07T03:32:01;13.43;;;2.88;;
45114;SDS011;30877;43.706;10.780;2023-08-07T03:34:34;11.93;;;2.75;;
45114;SDS011;30877;43.706;10.780;2023-08-07T03:37:05;15.05;;;6.90;;
45114;SDS011;30877;43.706;10.780;2023-08-07T03:39:34;15.95;;;8.85;;
45114;SDS011;30877;43.706;10.780;2023-08-07T03:42:03;17.95;;;10.88;;
45114;SDS011;30877;43.706;10.780;2023-08-07T03:44:32;19.13;;;11.10;;
45114;SDS011;30877;43.706;10.780;2023-08-07T03:47:02;14.77;;;8.73;;
45114;SDS011;30877;43.706;10.780;2023-08-07T03:49:32;14.13;;;7.95;;
45114;SDS011;30877;43.706;10.780;2023-08-07T03:52:03;13.98;;;5.05;;
45114;SDS011;30877;43.706;10.780;2023-08-07T03:54:33;14.13;;;5.35;;
45114;SDS011;30877;43.706;10.780;2023-08-07T03:57:01;14.50;;;7.45;;
45114;SDS011;30877;43.706;10.780;2023-08-07T03:59:31;14.23;;;4.38;;
45114;SDS011;30877;43.706;10.780;2023-08-07T04:02:00;18.63;;;7.75;;
45114;SDS011;30877;43.706;10.780;2023-08-07T04:04:29;12.45;;;5.03;;
45114;SDS011;30877;43.706;10.780;2023-08-07T04:07:00;13.13;;;10.13;;
45114;SDS011;30877;43.706;10.780;2023-08-07T04:09:30;23.05;;;16.80;;
45114;SDS011;30877;43.706;10.780;2023-08-07T04:12:00;30.02;;;19.98;;
45114;SDS011;30877;43.706;10.780;2023-08-07T04:14:30;28.02;;;18.70;;
45114;SDS011;30877;43.706;10.780;2023-08-07T04:16:59;22.17;;;12.73;;
45114;SDS011;30877;43.706;10.780;2023-08-07T04:19:29;28.73;;;23.08;;
45114;SDS011;30877;43.706;10.780;2023-08-07T04:21:58;19.95;;;11.07;;
45114;SDS011;30877;43.706;10.780;2023-08-07T04:24:29;24.90;;;16.35;;
45114;SDS011;30877;43.706;10.780;2023-08-07T04:26:58;17.83;;;9.63;;
45114;SDS011;30877;43.706;10.780;2023-08-07T04:29:27;14.13;;;7.05;;
45114;SDS011;30877;43.706;10.780;2023-08-07T04:31:56;13.65;;;6.97;;
45114;SDS011;30877;43.706;10.780;2023-08-07T04:34:25;17.17;;;5.18;;
45114;SDS011;30877;43.706;10.780;2023-08-07T04:36:54;14.70;;;5.63;;
45114;SDS011;30877;43.706;10.780;2023-08-07T04:39:26;9.10;;;3.40;;
45114;SDS011;30877;43.706;10.780;2023-08-07T04:41:55;10.35;;;3.15;;
45114;SDS011;30877;43.706;10.780;2023-08-07T04:44:24;10.77;;;3.13;;
45114;SDS011;30877;43.706;10.780;2023-08-07T04:46:53;11.20;;;2.63;;
45114;SDS011;30877;43.706;10.780;2023-08-07T04:49:23;10.30;;;3.10;;
45114;SDS011;30877;43.706;10.780;2023-08-07T04:51:52;11.68;;;3.00;;
45114;SDS011;30877;43.706;10.780;2023-08-07T04:54:21;8.05;;;2.92;;
45114;SDS011;30877;43.706;10.780;2023-08-07T04:56:52;15.93;;;3.72;;
45114;SDS011;30877;43.706;10.780;2023-08-07T04:59:22;10.23;;;2.97;;
45114;SDS011;30877;43.706;10.780;2023-08-07T05:01:52;11.50;;;2.92;;
45114;SDS011;30877;43.706;10.780;2023-08-07T05:04:21;16.88;;;3.05;;
45114;SDS011;30877;43.706;10.780;2023-08-07T05:06:51;16.63;;;4.68;;
45114;SDS011;30877;43.706;10.780;2023-08-07T05:09:20;11.48;;;2.65;;
45114;SDS011;30877;43.706;10.780;2023-08-07T05:11:48;9.88;;;3.05;;
45114;SDS011;30877;43.706;10.780;2023-08-07T05:14:18;13.40;;;2.90;;
45114;SDS011;30877;43.706;10.780;2023-08-07T05:16:47;15.85;;;3.92;;
45114;SDS011;30877;43.706;10.780;2023-08-07T05:19:16;13.50;;;3.50;;
45114;SDS011;30877;43.706;10.780;2023-08-07T05:21:44;14.13;;;2.92;;
45114;SDS011;30877;43.706;10.780;2023-08-07T05:24:17;11.70;;;3.78;;
45114;SDS011;30877;43.706;10.780;2023-08-07T05:26:46;8.30;;;2.70;;
45114;SDS011;30877;43.706;10.780;2023-08-07T05:29:14;10.13;;;2.63;;
45114;SDS011;30877;43.706;10.780;2023-08-07T05:31:44;9.18;;;2.30;;
45114;SDS011;30877;43.706;10.780;2023-08-07T05:34:13;10.10;;;3.30;;
45114;SDS011;30877;43.706;10.780;2023-08-07T05:36:41;12.10;;;3.33;;
45114;SDS011;30877;43.706;10.780;2023-08-07T05:39:09;9.68;;;2.63;;
45114;SDS011;30877;43.706;10.780;2023-08-07T05:41:38;11.88;;;2.83;;
45114;SDS011;30877;43.706;10.780;2023-08-07T05:44:06;10.98;;;3.13;;
45114;SDS011;30877;43.706;10.780;2023-08-07T05:46:35;12.07;;;2.80;;
45114;SDS011;30877;43.706;10.780;2023-08-07T05:49:05;12.75;;;3.55;;
45114;SDS011;30877;43.706;10.780;2023-08-07T05:51:33;13.50;;;3.28;;
45114;SDS011;30877;43.706;10.780;2023-08-07T05:54:01;13.65;;;3.10;;
45114;SDS011;30877;43.706;10.780;2023-08-07T05:56:30;12.90;;;2.70;;
45114;SDS011;30877;43.706;10.780;2023-08-07T05:58:58;14.02;;;3.30;;
45114;SDS011;30877;43.706;10.780;2023-08-07T06:01:27;8.25;;;2.50;;
45114;SDS011;30877;43.706;10.780;2023-08-07T06:03:58;13.88;;;3.22;;
45114;SDS011;30877;43.706;10.780;2023-08-07T06:06:28;11.98;;;3.53;;
45114;SDS011;30877;43.706;10.780;2023-08-07T06:08:56;8.38;;;2.75;;
45114;SDS011;30877;43.706;10.780;2023-08-07T06:11:28;10.88;;;3.00;;
45114;SDS011;30877;43.706;10.780;2023-08-07T06:13:57;11.60;;;3.15;;
45114;SDS011;30877;43.706;10.780;2023-08-07T06:16:26;10.85;;;3.35;;
45114;SDS011;30877;43.706;10.780;2023-08-07T06:18:55;12.45;;;3.67;;
45114;SDS011;30877;43.706;10.780;2023-08-07T06:21:23;14.13;;;4.25;;
45114;SDS011;30877;43.706;10.780;2023-08-07T06:23:53;12.30;;;3.42;;
45114;SDS011;30877;43.706;10.780;2023-08-07T06:26:22;11.25;;;2.65;;
45114;SDS011;30877;43.706;10.780;2023-08-07T06:28:51;15.38;;;3.67;;
45114;SDS011;30877;43.706;10.780;2023-08-07T06:31:19;14.82;;;3.10;;
45114;SDS011;30877;43.706;10.780;2023-08-07T06:33:49;11.30;;;3.45;;
45114;SDS011;30877;43.706;10.780;2023-08-07T06:36:17;12.02;;;2.83;;
45114;SDS011;30877;43.706;10.780;2023-08-07T06:38:46;14.82;;;3.38;;
45114;SDS011;30877;43.706;10.780;2023-08-07T06:41:16;14.07;;;3.33;;
45114;SDS011;30877;43.706;10.780;2023-08-07T06:43:44;13.45;;;3.53;;
45114;SDS011;30877;43.706;10.780;2023-08-07T06:46:13;13.55;;;4.15;;
45114;SDS011;30877;43.706;10.780;2023-08-07T06:48:41;14.60;;;3.88;;
45114;SDS011;30877;43.706;10.780;2023-08-07T06:51:10;17.95;;;4.47;;
45114;SDS011;30877;43.706;10.780;2023-08-07T06:53:38;14.60;;;4.03;;
45114;SDS011;30877;43.706;10.780;2023-08-07T06:56:06;14.93;;;3.70;;
45114;SDS011;30877;43.706;10.780;2023-08-07T06:58:37;17.58;;;3.97;;
45114;SDS011;30877;43.706;10.780;2023-08-07T07:01:05;13.35;;;3.17;;
45114;SDS011;30877;43.706;10.780;2023-08-07T07:03:33;14.63;;;4.10;;
45114;SDS011;30877;43.706;10.780;2023-08-07T07:06:02;18.02;;;3.25;;
45114;SDS011;30877;43.706;10.780;2023-08-07T07:08:30;14.50;;;4.07;;
45114;SDS011;30877;43.706;10.780;2023-08-07T07:10:59;13.50;;;3.05;;
45114;SDS011;30877;43.706;10.780;2023-08-07T07:13:28;16.05;;;3.90;;
45114;SDS011;30877;43.706;10.780;2023-08-07T07:15:58;11.45;;;2.92;;
45114;SDS011;30877;43.706;10.780;2023-08-07T07:18:27;13.63;;;3.15;;
45114;SDS011;30877;43.706;10.780;2023-08-07T07:20:58;19.30;;;6.47;;
45114;SDS011;30877;43.706;10.780;2023-08-07T07:23:27;16.90;;;3.85;;
45114;SDS011;30877;43.706;10.780;2023-08-07T07:25:56;14.70;;;3.83;;
45114;SDS011;30877;43.706;10.780;2023-08-07T07:28:25;15.20;;;3.20;;
45114;SDS011;30877;43.706;10.780;2023-08-07T07:30:53;17.33;;;3.78;;
45114;SDS011;30877;43.706;10.780;2023-08-07T07:33:23;12.98;;;3.60;;
45114;SDS011;30877;43.706;10.780;2023-08-07T07:35:53;12.02;;;3.03;;
45114;SDS011;30877;43.706;10.780;2023-08-07T07:38:21;16.45;;;3.38;;
45114;SDS011;30877;43.706;10.780;2023-08-07T07:40:49;14.52;;;3.50;;
45114;SDS011;30877;43.706;10.780;2023-08-07T07:43:18;22.17;;;7.78;;
45114;SDS011;30877;43.706;10.780;2023-08-07T07:45:46;19.95;;;6.00;;
45114;SDS011;30877;43.706;10.780;2023-08-07T07:48:15;14.23;;;3.30;;
45114;SDS011;30877;43.706;10.780;2023-08-07T07:50:45;14.35;;;3.55;;
45114;SDS011;30877;43.706;10.780;2023-08-07T07:53:14;19.80;;;12.55;;
45114;SDS011;30877;43.706;10.780;2023-08-07T07:55:46;17.27;;;4.60;;
45114;SDS011;30877;43.706;10.780;2023-08-07T07:58:15;14.75;;;5.35;;
45114;SDS011;30877;43.706;10.780;2023-08-07T08:00:43;16.17;;;5.35;;
45114;SDS011;30877;43.706;10.780;2023-08-07T08:03:12;13.75;;;3.88;;
45114;SDS011;30877;43.706;10.780;2023-08-07T08:05:41;16.75;;;4.72;;
45114;SDS011;30877;43.706;10.780;2023-08-07T08:08:11;20.27;;;4.53;;
45114;SDS011;30877;43.706;10.780;2023-08-07T08:10:40;21.58;;;4.35;;
45114;SDS011;30877;43.706;10.780;2023-08-07T08:13:09;15.50;;;3.90;;
45114;SDS011;30877;43.706;10.780;2023-08-07T08:15:38;15.13;;;4.45;;
45114;SDS011;30877;43.706;10.780;2023-08-07T08:18:07;21.45;;;4.15;;
45114;SDS011;30877;43.706;10.780;2023-08-07T08:20:36;18.13;;;4.30;;
45114;SDS011;30877;43.706;10.780;2023-08-07T08:23:05;15.63;;;4.10;;
45114;SDS011;30877;43.706;10.780;2023-08-07T08:25:35;15.27;;;4.50;;
45114;SDS011;30877;43.706;10.780;2023-08-07T08:28:04;21.63;;;11.48;;
45114;SDS011;30877;43.706;10.780;2023-08-07T08:30:32;16.33;;;4.75;;
45114;SDS011;30877;43.706;10.780;2023-08-07T08:33:01;17.15;;;3.78;;
45114;SDS011;30877;43.706;10.780;2023-08-07T08:35:30;12.98;;;3.90;;
45114;SDS011;30877;43.706;10.780;2023-08-07T08:37:59;16.92;;;5.00;;
45114;SDS011;30877;43.706;10.780;2023-08-07T08:40:27;10.68;;;3.42;;
45114;SDS011;30877;43.706;10.780;2023-08-07T08:42:58;13.68;;;3.53;;
45114;SDS011;30877;43.706;10.780;2023-08-07T08:45:28;17.85;;;3.58;;
45114;SDS011;30877;43.706;10.780;2023-08-07T08:48:06;14.02;;;3.53;;
45114;SDS011;30877;43.706;10.780;2023-08-07T08:50:38;15.07;;;4.32;;
45114;SDS011;30877;43.706;10.780;2023-08-07T08:53:07;18.70;;;4.57;;
45114;SDS011;30877;43.706;10.780;2023-08-07T08:55:38;16.33;;;4.07;;
45114;SDS011;30877;43.706;10.780;2023-08-07T08:58:12;31.58;;;5.80;;
45114;SDS011;30877;43.706;10.780;2023-08-07T09:00:44;19.98;;;4.20;;
45114;SDS011;30877;43.706;10.780;2023-08-07T09:03:13;17.77;;;3.67;;
45114;SDS011;30877;43.706;10.780;2023-08-07T09:05:42;11.73;;;3.67;;
45114;SDS011;30877;43.706;10.780;2023-08-07T09:08:11;16.05;;;3.75;;
45114;SDS011;30877;43.706;10.780;2023-08-07T09:10:40;13.77;;;2.67;;
45114;SDS011;30877;43.706;10.780;2023-08-07T09:13:12;15.18;;;4.07;;
45114;SDS011;30877;43.706;10.780;2023-08-07T09:15:44;14.40;;;3.45;;
45114;SDS011;30877;43.706;10.780;2023-08-07T09:18:18;13.18;;;3.33;;
45114;SDS011;30877;43.706;10.780;2023-08-07T09:20:47;16.90;;;3.08;;
45114;SDS011;30877;43.706;10.780;2023-08-07T09:23:16;15.55;;;3.17;;
45114;SDS011;30877;43.706;10.780;2023-08-07T09:25:45;12.30;;;3.10;;
45114;SDS011;30877;43.706;10.780;2023-08-07T09:28:13;12.25;;;3.00;;
45114;SDS011;30877;43.706;10.780;2023-08-07T09:30:43;13.55;;;4.28;;
45114;SDS011;30877;43.706;10.780;2023-08-07T09:33:13;12.15;;;3.28;;
45114;SDS011;30877;43.706;10.780;2023-08-07T09:35:41;13.23;;;3.17;;
45114;SDS011;30877;43.706;10.780;2023-08-07T09:38:10;17.08;;;3.30;;
45114;SDS011;30877;43.706;10.780;2023-08-07T09:40:39;13.82;;;3.53;;
45114;SDS011;30877;43.706;10.780;2023-08-07T09:43:09;8.48;;;2.42;;
45114;SDS011;30877;43.706;10.780;2023-08-07T09:45:49;9.57;;;2.47;;
45114;SDS011;30877;43.706;10.780;2023-08-07T09:48:22;11.00;;;2.70;;
45114;SDS011;30877;43.706;10.780;2023-08-07T09:50:55;11.25;;;3.00;;
45114;SDS011;30877;43.706;10.780;2023-08-07T09:53:29;9.80;;;2.58;;
45114;SDS011;30877;43.706;10.780;2023-08-07T09:55:58;10.30;;;1.85;;
45114;SDS011;30877;43.706;10.780;2023-08-07T09:58:27;8.93;;;2.47;;
45114;SDS011;30877;43.706;10.780;2023-08-07T10:01:00;9.05;;;2.13;;
45114;SDS011;30877;43.706;10.780;2023-08-07T10:03:30;9.63;;;2.45;;
45114;SDS011;30877;43.706;10.780;2023-08-07T10:05:59;4.78;;;1.60;;
45114;SDS011;30877;43.706;10.780;2023-08-07T10:08:29;8.38;;;1.80;;
45114;SDS011;30877;43.706;10.780;2023-08-07T10:10:58;4.82;;;1.55;;
45114;SDS011;30877;43.706;10.780;2023-08-07T10:13:27;5.78;;;1.40;;
45114;SDS011;30877;43.706;10.780;2023-08-07T10:16:07;6.75;;;1.30;;
45114;SDS011;30877;43.706;10.780;2023-08-07T10:18:35;6.57;;;1.50;;
45114;SDS011;30877;43.706;10.780;2023-08-07T10:21:05;6.95;;;1.65;;
45114;SDS011;30877;43.706;10.780;2023-08-07T10:23:34;3.97;;;1.17;;
45114;SDS011;30877;43.706;10.780;2023-08-07T10:26:07;7.72;;;1.48;;
45114;SDS011;30877;43.706;10.780;2023-08-07T10:28:37;4.32;;;1.05;;
45114;SDS011;30877;43.706;10.780;2023-08-07T10:31:09;6.00;;;1.60;;
45114;SDS011;30877;43.706;10.780;2023-08-07T10:33:40;5.82;;;1.45;;
45114;SDS011;30877;43.706;10.780;2023-08-07T10:36:10;8.55;;;1.77;;
45114;SDS011;30877;43.706;10.780;2023-08-07T10:38:39;3.65;;;1.50;;
45114;SDS011;30877;43.706;10.780;2023-08-07T10:41:09;5.22;;;1.45;;
45114;SDS011;30877;43.706;10.780;2023-08-07T10:43:40;5.45;;;1.17;;
45114;SDS011;30877;43.706;10.780;2023-08-07T10:46:11;5.32;;;1.48;;
45114;SDS011;30877;43.706;10.780;2023-08-07T10:48:43;4.22;;;1.40;;
45114;SDS011;30877;43.706;10.780;2023-08-07T10:51:14;6.07;;;1.48;;
45114;SDS011;30877;43.706;10.780;2023-08-07T10:53:45;4.88;;;1.35;;
45114;SDS011;30877;43.706;10.780;2023-08-07T10:56:15;4.47;;;1.17;;
45114;SDS011;30877;43.706;10.780;2023-08-07T10:58:47;2.58;;;0.80;;
45114;SDS011;30877;43.706;10.780;2023-08-07T11:01:24;2.97;;;1.13;;
45114;SDS011;30877;43.706;10.780;2023-08-07T11:04:08;3.10;;;0.82;;
45114;SDS011;30877;43.706;10.780;2023-08-07T11:06:38;2.85;;;1.00;;
45114;SDS011;30877;43.706;10.780;2023-08-07T11:09:08;4.68;;;1.10;;
45114;SDS011;30877;43.706;10.780;2023-08-07T11:11:37;2.60;;;1.00;;
45114;SDS011;30877;43.706;10.780;2023-08-07T11:14:08;5.63;;;1.17;;
45114;SDS011;30877;43.706;10.780;2023-08-07T11:16:39;4.82;;;1.20;;
45114;SDS011;30877;43.706;10.780;2023-08-07T11:19:08;7.97;;;1.38;;
45114;SDS011;30877;43.706;10.780;2023-08-07T11:21:37;5.82;;;1.65;;
45114;SDS011;30877;43.706;10.780;2023-08-07T11:24:06;3.05;;;1.00;;
45114;SDS011;30877;43.706;10.780;2023-08-07T11:26:34;3.53;;;0.82;;
45114;SDS011;30877;43.706;10.780;2023-08-07T11:29:03;3.42;;;0.95;;
45114;SDS011;30877;43.706;10.780;2023-08-07T11:31:32;3.83;;;1.02;;
45114;SDS011;30877;43.706;10.780;2023-08-07T11:34:02;4.45;;;0.98;;
45114;SDS011;30877;43.706;10.780;2023-08-07T11:36:31;3.38;;;0.98;;
45114;SDS011;30877;43.706;10.780;2023-08-07T11:39:01;4.97;;;1.08;;
45114;SDS011;30877;43.706;10.780;2023-08-07T11:41:31;3.33;;;1.02;;
45114;SDS011;30877;43.706;10.780;2023-08-07T11:44:00;3.42;;;1.17;;
45114;SDS011;30877;43.706;10.780;2023-08-07T11:46:29;2.97;;;1.02;;
45114;SDS011;30877;43.706;10.780;2023-08-07T11:48:57;3.90;;;1.20;;
45114;SDS011;30877;43.706;10.780;2023-08-07T11:51:28;2.35;;;1.08;;
45114;SDS011;30877;43.706;10.780;2023-08-07T11:53:56;5.00;;;1.50;;
45114;SDS011;30877;43.706;10.780;2023-08-07T11:56:26;3.50;;;0.90;;
45114;SDS011;30877;43.706;10.780;2023-08-07T11:58:56;3.25;;;1.05;;
45114;SDS011;30877;43.706;10.780;2023-08-07T12:01:26;4.03;;;1.08;;
45114;SDS011;30877;43.706;10.780;2023-08-07T12:03:55;2.78;;;0.70;;
45114;SDS011;30877;43.706;10.780;2023-08-07T12:06:25;3.28;;;1.00;;
45114;SDS011;30877;43.706;10.780;2023-08-07T12:08:55;4.55;;;1.20;;
45114;SDS011;30877;43.706;10.780;2023-08-07T12:11:24;5.53;;;1.23;;
45114;SDS011;30877;43.706;10.780;2023-08-07T12:13:52;6.00;;;1.45;;
45114;SDS011;30877;43.706;10.780;2023-08-07T12:16:21;2.88;;;1.08;;
45114;SDS011;30877;43.706;10.780;2023-08-07T12:18:49;3.45;;;1.27;;
45114;SDS011;30877;43.706;10.780;2023-08-07T12:21:19;3.90;;;1.25;;
45114;SDS011;30877;43.706;10.780;2023-08-07T12:23:51;3.55;;;1.00;;
45114;SDS011;30877;43.706;10.780;2023-08-07T12:26:24;4.03;;;1.00;;
45114;SDS011;30877;43.706;10.780;2023-08-07T12:28:52;2.92;;;0.93;;
45114;SDS011;30877;43.706;10.780;2023-08-07T12:31:21;6.45;;;1.45;;
45114;SDS011;30877;43.706;10.780;2023-08-07T12:33:49;7.32;;;1.35;;
45114;SDS011;30877;43.706;10.780;2023-08-07T12:36:19;8.43;;;1.75;;
45114;SDS011;30877;43.706;10.780;2023-08-07T12:38:47;5.38;;;1.48;;
45114;SDS011;30877;43.706;10.780;2023-08-07T12:41:17;5.57;;;1.25;;
45114;SDS011;30877;43.706;10.780;2023-08-07T12:43:47;5.20;;;1.52;;
45114;SDS011;30877;43.706;10.780;2023-08-07T12:46:16;5.55;;;1.35;;
45114;SDS011;30877;43.706;10.780;2023-08-07T12:48:47;6.22;;;1.60;;
45114;SDS011;30877;43.706;10.780;2023-08-07T12:51:14;3.78;;;0.95;;
45114;SDS011;30877;43.706;10.780;2023-08-07T12:53:44;5.20;;;1.30;;
45114;SDS011;30877;43.706;10.780;2023-08-07T12:56:12;6.85;;;1.60;;
45114;SDS011;30877;43.706;10.780;2023-08-07T12:58:42;7.45;;;1.67;;
45114;SDS011;30877;43.706;10.780;2023-08-07T13:01:10;4.78;;;1.58;;
45114;SDS011;30877;43.706;10.780;2023-08-07T13:03:38;4.68;;;1.20;;
45114;SDS011;30877;43.706;10.780;2023-08-07T13:06:06;4.60;;;1.30;;
45114;SDS011;30877;43.706;10.780;2023-08-07T13:08:36;4.18;;;1.40;;
45114;SDS011;30877;43.706;10.780;2023-08-07T13:11:04;3.55;;;0.98;;
45114;SDS011;30877;43.706;10.780;2023-08-07T13:13:32;4.35;;;1.27;;
45114;SDS011;30877;43.706;10.780;2023-08-07T13:16:01;3.72;;;0.93;;
45114;SDS011;30877;43.706;10.780;2023-08-07T13:18:30;2.28;;;1.13;;
45114;SDS011;30877;43.706;10.780;2023-08-07T13:20:58;4.20;;;1.55;;
45114;SDS011;30877;43.706;10.780;2023-08-07T13:23:26;2.97;;;1.15;;
45114;SDS011;30877;43.706;10.780;2023-08-07T13:25:54;3.90;;;1.33;;
45114;SDS011;30877;43.706;10.780;2023-08-07T13:28:23;4.22;;;1.00;;
45114;SDS011;30877;43.706;10.780;2023-08-07T13:30:51;3.85;;;1.13;;
45114;SDS011;30877;43.706;10.780;2023-08-07T13:33:22;3.63;;;1.20;;
45114;SDS011;30877;43.706;10.780;2023-08-07T13:35:51;4.35;;;1.27;;
45114;SDS011;30877;43.706;10.780;2023-08-07T13:38:19;22.05;;;3.90;;
45114;SDS011;30877;43.706;10.780;2023-08-07T13:40:47;6.68;;;1.40;;
45114;SDS011;30877;43.706;10.780;2023-08-07T13:43:15;4.20;;;1.27;;
45114;SDS011;30877;43.706;10.780;2023-08-07T13:45:43;5.40;;;1.10;;
45114;SDS011;30877;43.706;10.780;2023-08-07T13:48:11;2.00;;;0.80;;
45114;SDS011;30877;43.706;10.780;2023-08-07T13:50:41;5.18;;;0.95;;
45114;SDS011;30877;43.706;10.780;2023-08-07T13:53:09;5.90;;;1.00;;
45114;SDS011;30877;43.706;10.780;2023-08-07T13:55:42;3.50;;;0.60;;
45114;SDS011;30877;43.706;10.780;2023-08-07T13:58:11;3.83;;;0.75;;
45114;SDS011;30877;43.706;10.780;2023-08-07T14:00:42;1.55;;;0.60;;
45114;SDS011;30877;43.706;10.780;2023-08-07T14:03:11;3.38;;;0.65;;
45114;SDS011;30877;43.706;10.780;2023-08-07T14:05:42;4.68;;;0.68;;
45114;SDS011;30877;43.706;10.780;2023-08-07T14:08:10;1.55;;;0.60;;
45114;SDS011;30877;43.706;10.780;2023-08-07T14:10:38;2.90;;;0.60;;
45114;SDS011;30877;43.706;10.780;2023-08-07T14:13:08;2.65;;;0.75;;
45114;SDS011;30877;43.706;10.780;2023-08-07T14:15:39;2.00;;;0.40;;
45114;SDS011;30877;43.706;10.780;2023-08-07T14:18:07;1.77;;;0.50;;
45114;SDS011;30877;43.706;10.780;2023-08-07T14:20:35;1.05;;;0.52;;
45114;SDS011;30877;43.706;10.780;2023-08-07T14:23:23;7.30;;;0.80;;
45114;SDS011;30877;43.706;10.780;2023-08-07T14:25:51;4.07;;;0.90;;
45114;SDS011;30877;43.706;10.780;2023-08-07T14:28:20;1.33;;;0.40;;
45114;SDS011;30877;43.706;10.780;2023-08-07T14:30:48;2.85;;;0.43;;
45114;SDS011;30877;43.706;10.780;2023-08-07T14:33:16;1.10;;;0.40;;
45114;SDS011;30877;43.706;10.780;2023-08-07T14:35:44;0.65;;;0.30;;
45114;SDS011;30877;43.706;10.780;2023-08-07T14:38:13;1.55;;;0.40;;
45114;SDS011;30877;43.706;10.780;2023-08-07T14:40:43;0.85;;;0.30;;